createdAt,value
2022-08-26T00:00:13.156Z,31
2022-08-26T00:00:45.355Z,31
2022-08-26T00:01:17.386Z,40
2022-08-26T00:01:49.480Z,40
2022-08-26T00:02:21.268Z,40
2022-08-26T00:02:44.038Z,40
2022-08-26T00:03:08.378Z,40
2022-08-26T00:03:41.102Z,39
2022-08-26T00:04:13.404Z,40
2022-08-26T00:04:45.087Z,40
2022-08-26T00:05:17.467Z,39
2022-08-26T00:05:49.032Z,40
2022-08-26T00:06:21.093Z,38
2022-08-26T00:06:46.073Z,38
2022-08-26T00:07:06.163Z,29
2022-08-26T00:07:41.127Z,36
2022-08-26T00:08:13.010Z,36
2022-08-26T00:08:45.012Z,36
2022-08-26T00:09:17.105Z,36
2022-08-26T00:09:50.881Z,36
2022-08-26T00:10:21.669Z,36
2022-08-26T00:10:44.254Z,36
2022-08-26T00:11:06.666Z,36
2022-08-26T00:11:41.147Z,36
2022-08-26T00:12:13.615Z,40
2022-08-26T00:12:45.403Z,55
2022-08-26T00:13:17.005Z,61
2022-08-26T00:13:49.519Z,62
2022-08-26T00:14:25.049Z,65
2022-08-26T00:14:43.897Z,64
2022-08-26T00:15:06.465Z,64
2022-08-26T00:15:41.497Z,65
2022-08-26T00:16:13.066Z,72
2022-08-26T00:16:47.110Z,70
2022-08-26T00:17:17.259Z,68
2022-08-26T00:17:49.490Z,68
2022-08-26T00:18:22.771Z,64
2022-08-26T00:18:45.251Z,64
2022-08-26T00:19:07.618Z,62
2022-08-26T00:19:40.889Z,64
2022-08-26T00:20:13.856Z,64
2022-08-26T00:20:45.415Z,61
2022-08-26T00:21:17.169Z,61
2022-08-26T00:21:49.636Z,62
2022-08-26T00:22:21.686Z,62
2022-08-26T00:22:44.227Z,63
2022-08-26T00:23:08.961Z,56
2022-08-26T00:23:41.966Z,61
2022-08-26T00:24:12.901Z,61
2022-08-26T00:24:47.868Z,61
2022-08-26T00:25:17.130Z,61
2022-08-26T00:25:50.244Z,61
2022-08-26T00:26:21.079Z,61
2022-08-26T00:26:43.782Z,61
2022-08-26T00:27:06.493Z,61
2022-08-26T00:27:41.050Z,61
2022-08-26T00:28:13.075Z,61
2022-08-26T00:28:45.137Z,61
2022-08-26T00:29:17.259Z,61
2022-08-26T00:29:49.228Z,62
2022-08-26T00:30:22.956Z,64
2022-08-26T00:30:43.674Z,64
2022-08-26T00:31:06.075Z,64
2022-08-26T00:31:41.275Z,64
2022-08-26T00:32:12.865Z,64
2022-08-26T00:32:46.347Z,65
2022-08-26T00:33:16.983Z,64
2022-08-26T00:33:49.337Z,64
2022-08-26T00:34:22.780Z,64
2022-08-26T00:34:44.010Z,64
2022-08-26T00:35:07.246Z,64
2022-08-26T00:35:41.066Z,60
2022-08-26T00:36:20.381Z,59
2022-08-26T00:36:45.410Z,59
2022-08-26T00:37:17.591Z,59
2022-08-26T00:37:48.965Z,43
2022-08-26T00:38:21.089Z,6
2022-08-26T00:38:43.804Z,332
2022-08-26T00:39:06.289Z,325
2022-08-26T00:39:41.824Z,325
2022-08-26T00:40:13.123Z,325
2022-08-26T00:40:45.379Z,324
2022-08-26T00:41:17.105Z,327
2022-08-26T00:41:49.022Z,328
2022-08-26T00:42:21.077Z,329
2022-08-26T00:42:45.955Z,328
2022-08-26T00:43:09.419Z,326
2022-08-26T00:43:47.271Z,324
2022-08-26T00:44:13.346Z,328
2022-08-26T00:44:46.314Z,334
2022-08-26T00:45:17.693Z,332
2022-08-26T00:45:49.214Z,329
2022-08-26T00:46:20.978Z,329
2022-08-26T00:46:46.587Z,321
2022-08-26T00:47:06.831Z,314
2022-08-26T00:47:42.672Z,312
2022-08-26T00:48:13.111Z,328
2022-08-26T00:48:45.551Z,333
2022-08-26T00:49:17.211Z,307
2022-08-26T00:49:52.788Z,295
2022-08-26T00:50:26.648Z,295
2022-08-26T00:50:44.304Z,283
2022-08-26T00:51:06.274Z,285
2022-08-26T00:51:46.857Z,252
2022-08-26T00:52:13.296Z,262
2022-08-26T00:52:45.424Z,292
2022-08-26T00:53:17.639Z,308
2022-08-26T00:53:49.038Z,329
2022-08-26T00:54:20.987Z,342
2022-08-26T00:54:43.811Z,335
2022-08-26T00:55:06.030Z,340
2022-08-26T00:55:41.556Z,338
2022-08-26T00:56:13.311Z,332
2022-08-26T00:56:47.122Z,332
2022-08-26T00:57:17.001Z,331
2022-08-26T00:57:49.116Z,333
2022-08-26T00:58:22.535Z,339
2022-08-26T00:58:45.298Z,337
2022-08-26T00:59:08.079Z,334
2022-08-26T00:59:41.894Z,348
2022-08-26T01:00:13.241Z,338
2022-08-26T01:00:45.399Z,348
2022-08-26T01:01:17.373Z,348
2022-08-26T01:01:53.070Z,345
2022-08-26T01:02:22.272Z,341
2022-08-26T01:02:46.782Z,348
2022-08-26T01:03:11.572Z,352
2022-08-26T01:03:41.967Z,354
2022-08-26T01:04:13.075Z,353
2022-08-26T01:04:44.947Z,348
2022-08-26T01:05:17.015Z,354
2022-08-26T01:05:49.412Z,356
2022-08-26T01:06:20.847Z,354
2022-08-26T01:06:44.407Z,334
2022-08-26T01:07:06.234Z,295
2022-08-26T01:07:41.423Z,332
2022-08-26T01:08:13.772Z,334
2022-08-26T01:08:44.971Z,336
2022-08-26T01:09:17.047Z,345
2022-08-26T01:09:48.979Z,344
2022-08-26T01:10:20.959Z,340
2022-08-26T01:10:43.651Z,340
2022-08-26T01:11:05.970Z,342
2022-08-26T01:11:41.684Z,349
2022-08-26T01:12:13.570Z,349
2022-08-26T01:12:45.567Z,356
2022-08-26T01:13:16.979Z,356
2022-08-26T01:13:49.068Z,356
2022-08-26T01:14:20.979Z,0
2022-08-26T01:14:43.571Z,0
2022-08-26T01:15:06.958Z,0
2022-08-26T01:15:41.068Z,4
2022-08-26T01:16:13.210Z,4
2022-08-26T01:16:46.528Z,5
2022-08-26T01:17:18.014Z,9
2022-08-26T01:17:49.262Z,21
2022-08-26T01:18:21.867Z,25
2022-08-26T01:18:44.609Z,32
2022-08-26T01:19:07.023Z,32
2022-08-26T01:19:41.018Z,32
2022-08-26T01:20:12.963Z,32
2022-08-26T01:20:45.138Z,39
2022-08-26T01:21:21.351Z,39
2022-08-26T01:21:49.476Z,34
2022-08-26T01:22:21.112Z,28
2022-08-26T01:22:43.759Z,38
2022-08-26T01:25:18.954Z,32
2022-08-26T01:25:52.332Z,32
2022-08-26T01:26:25.103Z,32
2022-08-26T01:26:47.730Z,32
2022-08-26T01:27:24.903Z,32
2022-08-26T01:27:49.228Z,30
2022-08-26T01:28:09.924Z,28
2022-08-26T01:28:45.351Z,27
2022-08-26T01:29:16.944Z,27
2022-08-26T01:29:48.955Z,28
2022-08-26T01:30:22.562Z,28
2022-08-26T01:30:45.040Z,28
2022-08-26T01:31:07.265Z,28
2022-08-26T01:31:41.550Z,29
2022-08-26T01:32:12.844Z,29
2022-08-26T01:32:44.958Z,29
2022-08-26T01:33:16.797Z,29
2022-08-26T01:33:49.142Z,29
2022-08-26T01:34:20.854Z,29
2022-08-26T01:34:43.526Z,29
2022-08-26T01:35:06.300Z,29
2022-08-26T01:35:42.110Z,29
2022-08-26T01:36:13.753Z,29
2022-08-26T01:36:50.617Z,32
2022-08-26T01:37:17.215Z,32
2022-08-26T01:37:48.929Z,32
2022-08-26T01:38:21.198Z,32
2022-08-26T01:38:44.076Z,32
2022-08-26T01:39:07.405Z,32
2022-08-26T01:39:40.892Z,32
2022-08-26T01:40:13.147Z,32
2022-08-26T01:40:45.250Z,32
2022-08-26T01:41:19.888Z,53
2022-08-26T01:41:53.589Z,52
2022-08-26T01:42:20.953Z,52
2022-08-26T01:42:43.619Z,52
2022-08-26T01:43:07.401Z,52
2022-08-26T01:43:41.204Z,52
2022-08-26T01:44:13.107Z,52
2022-08-26T01:44:45.212Z,52
2022-08-26T01:45:17.699Z,53
2022-08-26T01:45:49.441Z,44
2022-08-26T01:46:22.122Z,29
2022-08-26T01:46:44.447Z,27
2022-08-26T01:47:07.376Z,27
2022-08-26T01:47:41.491Z,27
2022-08-26T01:48:13.290Z,27
2022-08-26T01:48:45.028Z,25
2022-08-26T01:49:16.912Z,25
2022-08-26T01:49:49.472Z,25
2022-08-26T01:50:27.614Z,25
2022-08-26T01:50:43.911Z,25
2022-08-26T01:51:06.342Z,25
2022-08-26T01:51:41.204Z,25
2022-08-26T01:52:13.588Z,25
2022-08-26T01:52:45.043Z,25
2022-08-26T01:53:17.689Z,25
2022-08-26T01:53:48.937Z,25
2022-08-26T01:54:26.235Z,26
2022-08-26T01:54:46.303Z,26
2022-08-26T01:55:07.930Z,26
2022-08-26T01:55:41.087Z,25
2022-08-26T01:56:13.455Z,25
2022-08-26T01:56:45.399Z,25
2022-08-26T01:57:17.413Z,25
2022-08-26T01:57:49.097Z,25
2022-08-26T01:58:20.897Z,25
2022-08-26T01:58:43.613Z,25
2022-08-26T01:59:09.937Z,25
2022-08-26T01:59:41.488Z,26
2022-08-26T02:00:13.237Z,26
2022-08-26T02:00:45.105Z,26
2022-08-26T02:01:17.831Z,26
2022-08-26T02:01:49.226Z,26
2022-08-26T02:02:25.494Z,27
2022-08-26T02:02:53.378Z,27
2022-08-26T02:03:25.571Z,28
2022-08-26T02:03:47.966Z,28
2022-08-26T02:04:11.022Z,28
2022-08-26T02:04:46.547Z,28
2022-08-26T02:05:16.943Z,28
2022-08-26T02:05:51.447Z,28
2022-08-26T02:06:21.681Z,28
2022-08-26T02:06:44.292Z,28
2022-08-26T02:07:06.665Z,28
2022-08-26T02:07:40.882Z,28
2022-08-26T02:08:12.976Z,28
2022-08-26T02:08:44.918Z,28
2022-08-26T02:09:16.889Z,28
2022-08-26T02:09:48.793Z,28
2022-08-26T02:10:21.098Z,28
2022-08-26T02:10:43.751Z,28
2022-08-26T02:11:06.169Z,28
2022-08-26T02:11:41.167Z,28
2022-08-26T02:12:12.940Z,28
2022-08-26T02:12:45.283Z,28
2022-08-26T02:13:18.501Z,28
2022-08-26T02:13:49.486Z,28
2022-08-26T02:14:21.291Z,28
2022-08-26T02:14:44.443Z,28
2022-08-26T02:15:06.936Z,28
2022-08-26T02:15:40.937Z,7
2022-08-26T02:16:13.148Z,326
2022-08-26T02:16:45.040Z,327
2022-08-26T02:17:17.301Z,330
2022-08-26T02:17:48.914Z,331
2022-08-26T02:18:21.158Z,334
2022-08-26T02:18:43.820Z,332
2022-08-26T02:19:06.218Z,338
2022-08-26T02:19:41.103Z,338
2022-08-26T02:20:14.959Z,340
2022-08-26T02:20:46.525Z,334
2022-08-26T02:21:16.771Z,326
2022-08-26T02:21:51.267Z,321
2022-08-26T02:22:21.000Z,320
2022-08-26T02:22:45.144Z,327
2022-08-26T02:23:12.271Z,326
2022-08-26T02:23:35.233Z,325
2022-08-26T02:23:57.368Z,325
2022-08-26T02:24:29.621Z,327
2022-08-26T02:24:52.572Z,328
2022-08-26T02:25:14.834Z,326
2022-08-26T02:25:48.930Z,323
2022-08-26T02:26:20.924Z,320
2022-08-26T02:26:43.559Z,319
2022-08-26T02:27:06.377Z,324
2022-08-26T02:27:41.336Z,331
2022-08-26T02:28:13.054Z,336
2022-08-26T02:28:44.830Z,342
2022-08-26T02:29:16.927Z,347
2022-08-26T02:29:49.172Z,354
2022-08-26T02:30:23.373Z,354
2022-08-26T02:30:46.011Z,354
2022-08-26T02:31:09.286Z,354
2022-08-26T02:31:40.899Z,354
2022-08-26T02:32:18.486Z,9
2022-08-26T02:32:51.007Z,28
2022-08-26T02:33:13.594Z,43
2022-08-26T02:33:48.996Z,45
2022-08-26T02:34:20.775Z,54
2022-08-26T02:34:43.442Z,54
2022-08-26T02:35:05.887Z,55
2022-08-26T02:35:42.376Z,54
2022-08-26T02:36:29.550Z,61
2022-08-26T02:36:52.180Z,61
2022-08-26T02:37:15.029Z,64
2022-08-26T02:37:49.516Z,64
2022-08-26T02:38:20.757Z,62
2022-08-26T02:38:43.591Z,62
2022-08-26T02:39:06.041Z,61
2022-08-26T02:39:40.944Z,60
2022-08-26T02:40:13.364Z,60
2022-08-26T02:40:44.968Z,60
2022-08-26T02:41:18.361Z,60
2022-08-26T02:41:50.053Z,60
2022-08-26T02:42:20.878Z,60
2022-08-26T02:42:43.579Z,60
2022-08-26T02:43:08.627Z,60
2022-08-26T02:43:41.255Z,60
2022-08-26T02:44:13.346Z,60
2022-08-26T02:44:45.038Z,60
2022-08-26T02:45:23.151Z,60
2022-08-26T02:45:49.864Z,60
2022-08-26T02:46:23.100Z,60
2022-08-26T02:46:47.123Z,60
2022-08-26T02:47:05.821Z,60
2022-08-26T02:47:41.424Z,60
2022-08-26T02:48:13.143Z,60
2022-08-26T02:48:45.565Z,60
2022-08-26T02:49:17.678Z,60
2022-08-26T02:49:48.818Z,60
2022-08-26T02:50:21.290Z,60
2022-08-26T02:50:45.461Z,60
2022-08-26T02:51:06.353Z,60
2022-08-26T02:51:47.245Z,60
2022-08-26T02:52:13.278Z,60
2022-08-26T02:52:45.185Z,60
2022-08-26T02:53:17.061Z,60
2022-08-26T02:53:56.858Z,60
2022-08-26T02:54:20.058Z,60
2022-08-26T02:54:54.222Z,60
2022-08-26T02:55:24.892Z,60
2022-08-26T02:55:47.532Z,60
2022-08-26T02:56:09.915Z,60
2022-08-26T02:56:44.830Z,60
2022-08-26T02:57:17.518Z,60
2022-08-26T02:57:48.914Z,60
2022-08-26T02:58:21.003Z,24
2022-08-26T02:58:44.028Z,1
2022-08-26T02:59:07.026Z,342
2022-08-26T02:59:41.020Z,322
2022-08-26T03:00:12.937Z,274
2022-08-26T03:00:53.172Z,274
2022-08-26T03:01:16.808Z,304
2022-08-26T03:01:48.996Z,274
2022-08-26T03:02:21.247Z,257
2022-08-26T03:02:43.883Z,268
2022-08-26T03:03:07.699Z,267
2022-08-26T03:03:41.159Z,278
2022-08-26T03:04:15.271Z,284
2022-08-26T03:04:57.673Z,260
2022-08-26T03:05:17.531Z,262
2022-08-26T03:05:48.919Z,251
2022-08-26T03:06:21.074Z,257
2022-08-26T03:06:52.646Z,253
2022-08-26T03:07:06.119Z,241
2022-08-26T03:07:41.294Z,248
2022-08-26T03:08:12.775Z,279
2022-08-26T03:08:47.091Z,240
2022-08-26T03:09:18.642Z,248
2022-08-26T03:09:49.271Z,280
2022-08-26T03:10:20.787Z,354
2022-08-26T03:10:43.401Z,2
2022-08-26T03:11:05.846Z,7
2022-08-26T03:11:40.910Z,347
2022-08-26T03:12:13.668Z,280
2022-08-26T03:12:44.779Z,358
2022-08-26T03:13:17.383Z,80
2022-08-26T03:13:49.742Z,66
2022-08-26T03:14:20.818Z,57
2022-08-26T03:14:43.410Z,72
2022-08-26T03:15:17.670Z,65
2022-08-26T03:15:41.874Z,75
2022-08-26T03:16:12.989Z,24
2022-08-26T03:16:48.490Z,31
2022-08-26T03:17:17.747Z,34
2022-08-26T03:17:49.061Z,60
2022-08-26T03:18:20.995Z,57
2022-08-26T03:18:43.616Z,57
2022-08-26T03:19:06.448Z,52
2022-08-26T03:19:40.911Z,51
2022-08-26T03:20:13.673Z,95
2022-08-26T03:20:44.796Z,81
2022-08-26T03:21:17.587Z,80
2022-08-26T03:21:49.109Z,74
2022-08-26T03:22:21.091Z,67
2022-08-26T03:22:43.676Z,67
2022-08-26T03:23:08.216Z,67
2022-08-26T03:23:40.944Z,66
2022-08-26T03:24:14.524Z,66
2022-08-26T03:24:46.127Z,60
2022-08-26T03:25:17.374Z,60
2022-08-26T03:25:49.486Z,62
2022-08-26T03:26:20.846Z,67
2022-08-26T03:26:52.105Z,66
2022-08-26T03:27:07.284Z,66
2022-08-26T03:27:41.634Z,63
2022-08-26T03:28:13.552Z,66
2022-08-26T03:28:45.306Z,51
2022-08-26T03:29:16.979Z,66
2022-08-26T03:29:49.557Z,36
2022-08-26T03:30:22.402Z,46
2022-08-26T03:30:45.013Z,51
2022-08-26T03:31:06.100Z,72
2022-08-26T03:31:40.910Z,91
2022-08-26T03:32:13.839Z,67
2022-08-26T03:32:44.902Z,67
2022-08-26T03:33:16.834Z,55
2022-08-26T03:33:48.770Z,60
2022-08-26T03:34:17.916Z,44
2022-08-26T03:34:49.522Z,63
2022-08-26T03:35:24.895Z,36
2022-08-26T03:35:47.636Z,68
2022-08-26T03:36:10.815Z,53
2022-08-26T03:36:45.844Z,52
2022-08-26T03:37:17.876Z,55
2022-08-26T03:37:48.743Z,63
2022-08-26T03:38:20.779Z,61
2022-08-26T03:38:43.539Z,59
2022-08-26T03:39:05.863Z,60
2022-08-26T03:39:41.351Z,62
2022-08-26T03:40:12.774Z,55
2022-08-26T03:40:45.243Z,63
2022-08-26T03:41:16.931Z,60
2022-08-26T03:41:48.786Z,55
2022-08-26T03:42:21.534Z,57
2022-08-26T03:42:45.274Z,57
2022-08-26T03:43:06.027Z,57
2022-08-26T03:43:40.810Z,86
2022-08-26T03:44:12.749Z,58
2022-08-26T03:44:44.651Z,55
2022-08-26T03:45:16.866Z,52
2022-08-26T03:45:48.778Z,40
2022-08-26T03:46:21.174Z,39
2022-08-26T03:46:43.987Z,39
2022-08-26T03:47:09.471Z,37
2022-08-26T03:47:41.070Z,38
2022-08-26T03:48:12.743Z,37
2022-08-26T03:48:44.715Z,35
2022-08-26T03:49:17.442Z,35
2022-08-26T03:49:49.026Z,35
2022-08-26T03:50:24.387Z,349
2022-08-26T03:50:44.506Z,335
2022-08-26T03:51:07.286Z,334
2022-08-26T03:51:40.921Z,346
2022-08-26T03:52:14.567Z,352
2022-08-26T03:52:44.805Z,0
2022-08-26T03:53:17.400Z,27
2022-08-26T03:53:50.480Z,32
2022-08-26T03:54:21.669Z,32
2022-08-26T03:54:44.474Z,32
2022-08-26T03:55:06.710Z,32
2022-08-26T03:55:41.026Z,339
2022-08-26T03:56:12.779Z,320
2022-08-26T03:56:46.617Z,338
2022-08-26T03:57:16.843Z,9
2022-08-26T03:57:48.864Z,32
2022-08-26T03:58:22.666Z,51
2022-08-26T03:58:44.829Z,53
2022-08-26T03:59:09.075Z,63
2022-08-26T03:59:41.330Z,65
2022-08-26T04:00:13.327Z,61
2022-08-26T04:00:44.913Z,56
2022-08-26T04:01:16.875Z,64
2022-08-26T04:01:49.045Z,18
2022-08-26T04:02:22.999Z,8
2022-08-26T04:02:44.119Z,8
2022-08-26T04:03:07.007Z,14
2022-08-26T04:03:41.417Z,21
2022-08-26T04:04:15.617Z,22
2022-08-26T04:04:44.710Z,34
2022-08-26T04:05:16.905Z,66
2022-08-26T04:05:49.731Z,233
2022-08-26T04:06:21.129Z,243
2022-08-26T04:06:44.519Z,269
2022-08-26T04:07:06.186Z,294
2022-08-26T04:07:40.833Z,328
2022-08-26T04:08:13.139Z,352
2022-08-26T04:08:44.756Z,344
2022-08-26T04:09:17.546Z,345
2022-08-26T04:09:49.102Z,355
2022-08-26T04:10:20.787Z,18
2022-08-26T04:10:43.539Z,18
2022-08-26T04:11:06.536Z,20
2022-08-26T04:11:40.778Z,20
2022-08-26T04:12:15.466Z,27
2022-08-26T04:12:45.572Z,27
2022-08-26T04:13:16.774Z,27
2022-08-26T04:13:48.903Z,14
2022-08-26T04:14:20.668Z,345
2022-08-26T04:14:43.463Z,344
2022-08-26T04:15:06.726Z,332
2022-08-26T04:15:40.814Z,348
2022-08-26T04:16:12.832Z,352
2022-08-26T04:16:44.764Z,273
2022-08-26T04:17:17.009Z,321
2022-08-26T04:17:48.765Z,4
2022-08-26T04:18:21.280Z,14
2022-08-26T04:18:46.626Z,14
2022-08-26T04:19:06.460Z,14
2022-08-26T04:19:40.818Z,14
2022-08-26T04:20:13.552Z,14
2022-08-26T04:20:45.577Z,14
2022-08-26T04:21:16.886Z,14
2022-08-26T04:21:49.265Z,14
2022-08-26T04:22:25.174Z,14
2022-08-26T04:22:44.036Z,15
2022-08-26T04:23:12.189Z,30
2022-08-26T04:23:47.233Z,30
2022-08-26T04:24:12.834Z,31
2022-08-26T04:24:48.742Z,31
2022-08-26T04:25:17.352Z,31
2022-08-26T04:25:48.880Z,31
2022-08-26T04:26:18.175Z,31
2022-08-26T04:26:49.501Z,31
2022-08-26T04:27:26.848Z,35
2022-08-26T04:27:49.224Z,35
2022-08-26T04:28:11.743Z,34
2022-08-26T04:28:44.919Z,35
2022-08-26T04:29:16.767Z,35
2022-08-26T04:29:56.900Z,35
2022-08-26T04:30:19.275Z,35
2022-08-26T04:30:49.525Z,36
2022-08-26T04:31:25.020Z,41
2022-08-26T04:31:47.491Z,41
2022-08-26T04:32:09.866Z,42
2022-08-26T04:32:45.500Z,42
2022-08-26T04:33:19.715Z,42
2022-08-26T04:33:49.555Z,42
2022-08-26T04:34:18.651Z,42
2022-08-26T04:34:49.661Z,42
2022-08-26T04:35:26.097Z,42
2022-08-26T04:35:47.602Z,42
2022-08-26T04:36:10.058Z,59
2022-08-26T04:36:45.599Z,63
2022-08-26T04:37:16.787Z,62
2022-08-26T04:37:49.451Z,59
2022-08-26T04:38:20.824Z,57
2022-08-26T04:38:43.515Z,58
2022-08-26T04:39:07.603Z,58
2022-08-26T04:39:40.746Z,58
2022-08-26T04:40:12.920Z,58
2022-08-26T04:40:46.855Z,58
2022-08-26T04:41:17.967Z,58
2022-08-26T04:41:48.758Z,58
2022-08-26T04:42:21.077Z,58
2022-08-26T04:42:49.598Z,60
2022-08-26T04:43:24.868Z,62
2022-08-26T04:43:47.451Z,62
2022-08-26T04:44:09.870Z,62
2022-08-26T04:44:44.894Z,57
2022-08-26T04:45:17.557Z,57
2022-08-26T04:45:48.831Z,76
2022-08-26T04:46:20.922Z,66
2022-08-26T04:46:43.929Z,66
2022-08-26T04:47:06.207Z,66
2022-08-26T04:47:40.895Z,66
2022-08-26T04:48:12.859Z,66
2022-08-26T04:48:44.834Z,66
2022-08-26T04:49:16.981Z,66
2022-08-26T04:49:48.843Z,66
2022-08-26T04:50:23.043Z,66
2022-08-26T04:50:44.476Z,66
2022-08-26T04:51:06.846Z,66
2022-08-26T04:51:47.119Z,66
2022-08-26T04:52:12.987Z,16
2022-08-26T04:52:45.398Z,323
2022-08-26T04:53:17.013Z,291
2022-08-26T04:53:50.410Z,303
2022-08-26T04:54:21.036Z,317
2022-08-26T04:54:43.572Z,302
2022-08-26T04:55:08.528Z,306
2022-08-26T04:55:44.192Z,265
2022-08-26T04:56:12.882Z,267
2022-08-26T04:56:44.741Z,269
2022-08-26T04:57:17.557Z,261
2022-08-26T04:57:48.858Z,295
2022-08-26T04:58:21.151Z,263
2022-08-26T04:58:44.202Z,277
2022-08-26T04:59:07.606Z,307
2022-08-26T04:59:41.112Z,315
2022-08-26T05:00:13.201Z,313
2022-08-26T05:00:44.820Z,328
2022-08-26T05:01:18.391Z,334
2022-08-26T05:01:49.750Z,328
2022-08-26T05:02:20.958Z,330
2022-08-26T05:02:43.666Z,331
2022-08-26T05:03:06.661Z,324
2022-08-26T05:03:40.861Z,324
2022-08-26T05:04:13.799Z,331
2022-08-26T05:04:44.746Z,344
2022-08-26T05:05:17.267Z,348
2022-08-26T05:05:48.709Z,348
2022-08-26T05:06:18.957Z,348
2022-08-26T05:06:49.642Z,348
2022-08-26T05:07:24.898Z,348
2022-08-26T05:07:47.548Z,349
2022-08-26T05:08:09.896Z,58
2022-08-26T05:08:45.491Z,60
2022-08-26T05:09:16.664Z,56
2022-08-26T05:09:49.235Z,75
2022-08-26T05:10:21.323Z,75
2022-08-26T05:10:44.448Z,66
2022-08-26T05:11:07.880Z,53
2022-08-26T05:11:40.694Z,66
2022-08-26T05:12:13.459Z,58
2022-08-26T05:12:45.027Z,70
2022-08-26T05:13:17.055Z,67
2022-08-26T05:13:48.996Z,72
2022-08-26T05:14:20.859Z,64
2022-08-26T05:14:43.502Z,60
2022-08-26T05:15:06.268Z,59
2022-08-26T05:15:41.605Z,54
2022-08-26T05:16:12.627Z,65
2022-08-26T05:16:45.108Z,66
2022-08-26T05:17:16.900Z,71
2022-08-26T05:17:49.933Z,71
2022-08-26T05:18:20.827Z,59
2022-08-26T05:18:43.507Z,66
2022-08-26T05:19:05.898Z,64
2022-08-26T05:19:42.905Z,77
2022-08-26T05:20:12.771Z,68
2022-08-26T05:20:44.667Z,60
2022-08-26T05:21:18.152Z,41
2022-08-26T05:21:49.690Z,74
2022-08-26T05:22:22.406Z,81
2022-08-26T05:22:45.021Z,84
2022-08-26T05:23:09.278Z,60
2022-08-26T05:23:41.761Z,58
2022-08-26T05:24:13.716Z,54
2022-08-26T05:24:46.564Z,66
2022-08-26T05:25:16.847Z,60
2022-08-26T05:25:49.950Z,52
2022-08-26T05:26:23.199Z,68
2022-08-26T05:26:44.539Z,53
2022-08-26T05:27:11.402Z,59
2022-08-26T05:27:40.808Z,47
2022-08-26T05:28:12.821Z,65
2022-08-26T05:28:44.687Z,63
2022-08-26T05:29:17.439Z,81
2022-08-26T05:29:49.005Z,71
2022-08-26T05:30:26.286Z,70
2022-08-26T05:30:43.434Z,53
2022-08-26T05:31:06.393Z,71
2022-08-26T05:31:41.729Z,67
2022-08-26T05:32:12.662Z,78
2022-08-26T05:32:45.254Z,74
2022-08-26T05:33:16.691Z,76
2022-08-26T05:33:49.568Z,69
2022-08-26T05:34:21.692Z,65
2022-08-26T05:34:44.372Z,78
2022-08-26T05:35:08.833Z,52
2022-08-26T05:35:43.163Z,79
2022-08-26T05:36:28.793Z,69
2022-08-26T05:36:51.603Z,66
2022-08-26T05:37:13.862Z,64
2022-08-26T05:37:48.742Z,71
2022-08-26T05:38:20.695Z,58
2022-08-26T05:38:44.143Z,61
2022-08-26T05:39:06.425Z,59
2022-08-26T05:39:41.254Z,152
2022-08-26T05:40:12.843Z,188
2022-08-26T05:40:44.536Z,175
2022-08-26T05:41:17.207Z,174
2022-08-26T05:41:48.560Z,69
2022-08-26T05:42:20.681Z,11
2022-08-26T05:42:43.280Z,14
2022-08-26T05:43:05.686Z,185
2022-08-26T05:43:40.644Z,93
2022-08-26T05:44:12.691Z,192
2022-08-26T05:44:54.148Z,90
2022-08-26T05:45:16.745Z,126
2022-08-26T05:45:49.018Z,200
2022-08-26T05:46:18.064Z,76
2022-08-26T05:46:49.639Z,190
2022-08-26T05:47:25.288Z,172
2022-08-26T05:47:47.778Z,196
2022-08-26T05:48:10.011Z,190
2022-08-26T05:48:44.738Z,161
2022-08-26T05:49:16.690Z,165
2022-08-26T05:49:51.689Z,126
2022-08-26T05:50:24.542Z,138
2022-08-26T05:50:49.839Z,183
2022-08-26T05:51:25.994Z,214
2022-08-26T05:51:54.017Z,175
2022-08-26T05:52:30.004Z,151
2022-08-26T05:52:52.469Z,166
2022-08-26T05:53:14.890Z,157
2022-08-26T05:53:54.621Z,206
2022-08-26T05:54:22.242Z,124
2022-08-26T05:54:43.831Z,171
2022-08-26T05:55:07.025Z,140
2022-08-26T05:55:41.095Z,148
2022-08-26T05:56:12.751Z,167
2022-08-26T05:56:44.683Z,179
2022-08-26T05:57:17.139Z,171
2022-08-26T05:57:49.379Z,147
2022-08-26T05:58:21.797Z,170
2022-08-26T05:58:44.473Z,114
2022-08-26T05:59:14.430Z,112
2022-08-26T05:59:44.736Z,197
2022-08-26T06:00:13.033Z,222
2022-08-26T06:00:48.627Z,110
2022-08-26T06:01:11.087Z,125
2022-08-26T06:01:49.239Z,151
2022-08-26T06:02:21.169Z,110
2022-08-26T06:02:51.322Z,123
2022-08-26T06:03:24.539Z,129
2022-08-26T06:03:47.698Z,208
2022-08-26T06:04:09.745Z,115
2022-08-26T06:04:44.670Z,121
2022-08-26T06:05:22.154Z,67
2022-08-26T06:05:48.670Z,74
2022-08-26T06:06:20.796Z,204
2022-08-26T06:06:49.609Z,171
2022-08-26T06:07:24.769Z,165
2022-08-26T06:07:47.900Z,149
2022-08-26T06:08:10.073Z,173
2022-08-26T06:08:44.730Z,138
2022-08-26T06:09:17.409Z,16
2022-08-26T06:09:49.047Z,179
2022-08-26T06:10:32.108Z,115
2022-08-26T06:10:49.819Z,172
2022-08-26T06:11:24.903Z,175
2022-08-26T06:11:47.390Z,178
2022-08-26T06:12:09.702Z,135
2022-08-26T06:12:44.696Z,87
2022-08-26T06:13:20.198Z,174
2022-08-26T06:13:48.785Z,151
2022-08-26T06:14:18.275Z,148
2022-08-26T06:14:49.748Z,168
2022-08-26T06:15:30.220Z,177
2022-08-26T06:15:47.830Z,162
2022-08-26T06:16:10.308Z,101
2022-08-26T06:16:44.629Z,163
2022-08-26T06:17:16.743Z,193
2022-08-26T06:17:48.526Z,160
2022-08-26T06:18:17.935Z,140
2022-08-26T06:18:49.719Z,177
2022-08-26T06:19:24.826Z,144
2022-08-26T06:19:47.564Z,194
2022-08-26T06:20:10.270Z,180
2022-08-26T06:20:56.918Z,185
2022-08-26T06:21:16.594Z,145
2022-08-26T06:21:53.942Z,163
2022-08-26T06:22:23.375Z,178
2022-08-26T06:22:43.501Z,172
2022-08-26T06:23:05.846Z,161
2022-08-26T06:23:40.738Z,227
2022-08-26T06:24:12.834Z,118
2022-08-26T06:24:46.186Z,184
2022-08-26T06:25:16.833Z,118
2022-08-26T06:25:48.702Z,184
2022-08-26T06:26:20.744Z,119
2022-08-26T06:26:43.483Z,154
2022-08-26T06:27:05.671Z,138
2022-08-26T06:27:40.687Z,23
2022-08-26T06:28:12.760Z,240
2022-08-26T06:28:45.453Z,306
2022-08-26T06:29:24.127Z,245
2022-08-26T06:29:48.511Z,169
2022-08-26T06:30:18.401Z,54
2022-08-26T06:30:49.919Z,140
2022-08-26T06:31:24.806Z,122
2022-08-26T06:31:48.350Z,57
2022-08-26T06:32:10.735Z,159
2022-08-26T06:32:44.827Z,165
2022-08-26T06:33:16.738Z,163
2022-08-26T06:33:54.538Z,120
2022-08-26T06:34:17.004Z,96
2022-08-26T06:34:49.658Z,335
2022-08-26T06:35:24.743Z,176
2022-08-26T06:35:47.283Z,235
2022-08-26T06:36:09.811Z,212
2022-08-26T06:36:45.620Z,197
2022-08-26T06:37:17.135Z,163
2022-08-26T06:37:51.785Z,170
2022-08-26T06:38:20.753Z,132
2022-08-26T06:38:44.039Z,137
2022-08-26T06:39:06.575Z,74
2022-08-26T06:39:46.058Z,216
2022-08-26T06:40:12.735Z,234
2022-08-26T06:40:45.135Z,218
2022-08-26T06:41:16.670Z,98
2022-08-26T06:41:48.807Z,182
2022-08-26T06:42:18.808Z,204
2022-08-26T06:42:55.166Z,37
2022-08-26T06:43:24.772Z,83
2022-08-26T06:43:47.374Z,197
2022-08-26T06:44:09.886Z,251
2022-08-26T06:44:45.487Z,311
2022-08-26T06:45:16.806Z,164
2022-08-26T06:45:49.019Z,141
2022-08-26T06:46:20.715Z,329
2022-08-26T06:46:44.311Z,121
2022-08-26T06:47:05.970Z,277
2022-08-26T06:47:40.738Z,215
2022-08-26T06:48:12.659Z,241
2022-08-26T06:48:44.667Z,316
2022-08-26T06:49:17.371Z,24
2022-08-26T06:49:48.622Z,59
2022-08-26T06:50:25.165Z,277
2022-08-26T06:50:45.521Z,109
2022-08-26T06:51:07.609Z,65
2022-08-26T06:51:46.787Z,322
2022-08-26T06:52:12.700Z,232
2022-08-26T06:52:44.760Z,166
2022-08-26T06:53:16.746Z,239
2022-08-26T06:53:48.750Z,91
2022-08-26T06:54:18.114Z,276
2022-08-26T06:54:50.512Z,276
2022-08-26T06:55:26.910Z,240
2022-08-26T06:55:47.996Z,85
2022-08-26T06:56:11.945Z,288
2022-08-26T06:56:45.477Z,247
2022-08-26T06:57:16.884Z,256
2022-08-26T06:57:48.573Z,227
2022-08-26T06:58:19.612Z,249
2022-08-26T06:58:49.888Z,231
2022-08-26T06:59:28.718Z,316
2022-08-26T06:59:58.776Z,241
2022-08-26T07:00:28.685Z,225
2022-08-26T07:00:51.148Z,39
2022-08-26T07:01:13.700Z,135
2022-08-26T07:01:49.693Z,64
2022-08-26T07:02:18.364Z,267
2022-08-26T07:02:51.381Z,251
2022-08-26T07:03:26.235Z,242
2022-08-26T07:03:47.688Z,253